Terminal Aerodrome Forecast
Issued by NWS Sioux Falls, SD

Home | Current Version | Previous Version | Graphics & Text | Print | Product List | Glossary On
Versions: 1 2 3 4 5 6 7 8 9 10 11 12 13 14
000
FTUS43 KFSD 230520
TAFFSD
TAF
KFSD 230520Z 2306/2406 17005KT P6SM BKN090
     FM230900 14007KT P6SM VCSH BKN050
     FM231500 15010KT P6SM OVC035
     FM232200 14013KT P6SM OVC035
     FM240130 12009KT P6SM -SHRA OVC025=

USA.gov is the U.S. government's official web portal to all federal, state and local government web resources and services.